createdAt,value
2018-05-10T00:02:02.170Z,72.70
2018-05-10T00:04:53.791Z,72.80
2018-05-10T00:07:45.413Z,73.00
2018-05-10T00:10:37.574Z,73.40
2018-05-10T00:13:29.091Z,73.40
2018-05-10T00:16:22.352Z,73.00
2018-05-10T00:19:13.859Z,73.00
2018-05-10T00:22:05.344Z,72.70
2018-05-10T00:24:57.687Z,72.20
2018-05-10T00:27:49.209Z,72.10
2018-05-10T00:30:40.658Z,71.90
2018-05-10T00:33:32.180Z,72.50
2018-05-10T00:36:23.957Z,71.70
2018-05-10T00:39:15.646Z,71.60
2018-05-10T00:42:07.853Z,71.80
2018-05-10T00:44:59.342Z,71.80
2018-05-10T00:47:51.657Z,72.20
2018-05-10T00:50:43.290Z,72.10
2018-05-10T00:53:34.791Z,72.40
2018-05-10T00:56:26.289Z,72.40
2018-05-10T00:59:17.774Z,72.50
2018-05-10T01:02:09.213Z,72.80
2018-05-10T01:05:00.956Z,72.90
2018-05-10T01:07:52.749Z,73.30
2018-05-10T01:10:44.186Z,73.30
2018-05-10T01:13:35.647Z,73.30
2018-05-10T01:16:27.877Z,73.60
2018-05-10T01:19:20.192Z,73.70
2018-05-10T01:22:11.721Z,73.60
2018-05-10T01:25:03.196Z,73.80
2018-05-10T01:27:56.389Z,73.80
2018-05-10T01:30:48.628Z,73.80
2018-05-10T01:33:40.083Z,73.80
2018-05-10T01:36:32.367Z,73.80
2018-05-10T01:39:24.007Z,73.80
2018-05-10T01:42:15.466Z,73.90
2018-05-10T01:45:06.930Z,73.90
2018-05-10T01:47:58.485Z,74.30
2018-05-10T01:50:50.078Z,74.50
2018-05-10T01:53:41.547Z,74.70
2018-05-10T01:56:33.064Z,74.80
2018-05-10T01:59:24.675Z,75.20
2018-05-10T02:02:16.158Z,75.30
2018-05-10T02:05:07.600Z,75.40
2018-05-10T02:07:59.133Z,75.70
2018-05-10T02:10:50.646Z,76.00
2018-05-10T02:13:42.088Z,75.90
2018-05-10T02:16:33.543Z,76.20
2018-05-10T02:19:25.227Z,76.00
2018-05-10T02:22:16.686Z,76.10
2018-05-10T02:25:08.129Z,76.30
2018-05-10T02:27:59.611Z,76.30
2018-05-10T02:30:52.886Z,76.40
2018-05-10T02:33:45.149Z,76.40
2018-05-10T02:36:37.356Z,76.30
2018-05-10T02:39:28.849Z,76.30
2018-05-10T02:42:20.314Z,76.50
2018-05-10T02:45:11.758Z,76.60
2018-05-10T02:48:03.236Z,76.60
2018-05-10T02:50:55.645Z,76.80
2018-05-10T02:53:47.107Z,76.70
2018-05-10T02:56:38.556Z,76.90
2018-05-10T02:59:30.187Z,76.90
2018-05-10T03:02:21.815Z,77.10
2018-05-10T03:05:13.306Z,77.20
2018-05-10T03:08:04.759Z,77.40
2018-05-10T03:10:56.382Z,77.30
2018-05-10T03:13:47.822Z,77.30
2018-05-10T03:16:39.273Z,77.30
2018-05-10T03:19:30.894Z,77.30
2018-05-10T03:22:22.969Z,77.50
2018-05-10T03:25:15.337Z,77.30
2018-05-10T03:28:06.782Z,77.20
2018-05-10T03:30:58.383Z,77.50
2018-05-10T03:33:49.823Z,77.50
2018-05-10T03:36:41.274Z,77.80
2018-05-10T03:39:32.968Z,77.80
2018-05-10T03:42:25.078Z,78.00
2018-05-10T03:45:16.595Z,78.00
2018-05-10T03:48:08.033Z,78.40
2018-05-10T03:50:59.538Z,78.40
2018-05-10T03:53:51.771Z,78.40
2018-05-10T03:56:43.418Z,78.50
2018-05-10T03:59:35.676Z,79.40
2018-05-10T04:02:39.670Z,79.20
2018-05-10T04:05:43.118Z,79.00
2018-05-10T04:08:47.238Z,78.40
2018-05-10T04:11:38.694Z,78.40
2018-05-10T04:14:30.999Z,78.40
2018-05-10T04:17:25.008Z,79.20
2018-05-10T04:20:17.257Z,78.40
2018-05-10T04:23:08.714Z,78.30
2018-05-10T04:26:00.509Z,78.40
2018-05-10T04:28:57.622Z,78.40
2018-05-10T04:31:49.159Z,78.40
2018-05-10T04:34:40.598Z,78.60
2018-05-10T04:37:32.406Z,78.90
2018-05-10T04:40:24.655Z,79.30
2018-05-10T04:43:16.382Z,79.40
2018-05-10T04:46:07.844Z,79.50
2018-05-10T04:49:00.274Z,80.70
2018-05-10T04:51:53.203Z,80.50
2018-05-10T04:54:44.982Z,79.60
2018-05-10T04:57:36.851Z,79.30
2018-05-10T05:00:28.849Z,78.90
2018-05-10T05:03:20.602Z,78.60
2018-05-10T05:06:12.016Z,78.40
2018-05-10T05:09:03.651Z,78.30
2018-05-10T05:11:56.508Z,77.60
2018-05-10T05:14:47.962Z,77.50
2018-05-10T05:17:39.406Z,77.50
2018-05-10T05:20:30.921Z,75.90
2018-05-10T05:23:23.142Z,74.70
2018-05-10T05:26:14.691Z,73.30
2018-05-10T05:29:06.139Z,71.70
2018-05-10T05:31:57.630Z,69.90
2018-05-10T05:34:49.204Z,68.10
2018-05-10T05:37:40.649Z,66.10
2018-05-10T05:40:32.167Z,64.20
2018-05-10T05:43:26.903Z,63.40
2018-05-10T05:46:19.476Z,59.00
2018-05-10T05:49:10.909Z,59.00
2018-05-10T05:52:02.675Z,59.20
2018-05-10T05:54:55.517Z,58.40
2018-05-10T05:57:47.022Z,58.40
2018-05-10T06:00:38.692Z,57.50
2018-05-10T06:03:30.471Z,57.20
2018-05-10T06:06:22.962Z,56.30
2018-05-10T06:09:14.430Z,55.60
2018-05-10T06:12:05.923Z,54.30
2018-05-10T06:14:57.870Z,54.10
2018-05-10T06:17:49.458Z,53.30
2018-05-10T06:20:40.918Z,53.20
2018-05-10T06:23:33.218Z,52.40
2018-05-10T06:26:25.623Z,52.30
2018-05-10T06:29:17.116Z,51.30
2018-05-10T06:32:09.352Z,49.00
2018-05-10T06:35:00.809Z,49.00
2018-05-10T06:37:55.649Z,49.80
2018-05-10T06:40:47.106Z,49.20
2018-05-10T06:43:39.330Z,48.00
2018-05-10T06:46:30.908Z,48.00
2018-05-10T06:49:23.760Z,47.70
2018-05-10T06:52:15.243Z,47.40
2018-05-10T06:55:06.712Z,47.10
2018-05-10T06:57:58.292Z,46.60
2018-05-10T07:00:49.747Z,47.00
2018-05-10T07:03:41.221Z,46.40
2018-05-10T07:06:33.137Z,47.60
2018-05-10T07:09:26.051Z,45.60
2018-05-10T07:12:17.426Z,45.60
2018-05-10T07:15:08.869Z,44.70
2018-05-10T07:18:00.470Z,44.90
2018-05-10T07:20:52.062Z,45.10
2018-05-10T07:23:43.544Z,44.70
2018-05-10T07:26:35.043Z,43.60
2018-05-10T07:29:26.634Z,43.60
2018-05-10T07:32:19.057Z,43.70
2018-05-10T07:35:10.491Z,41.80
2018-05-10T07:38:02.274Z,41.50
2018-05-10T07:40:53.895Z,42.90
2018-05-10T07:43:45.484Z,41.80
2018-05-10T07:46:37.367Z,41.90
2018-05-10T07:49:28.985Z,40.30
2018-05-10T07:52:20.473Z,40.90
2018-05-10T07:55:12.769Z,40.20
2018-05-10T07:58:04.503Z,40.20
2018-05-10T08:00:57.351Z,40.80
2018-05-10T08:03:48.914Z,41.20
2018-05-10T08:06:40.377Z,42.10
2018-05-10T08:09:31.960Z,41.60
2018-05-10T08:12:27.629Z,43.00
2018-05-10T08:15:19.234Z,43.50
2018-05-10T08:18:11.582Z,44.50
2018-05-10T08:21:03.240Z,45.30
2018-05-10T08:23:56.361Z,46.20
2018-05-10T08:26:47.843Z,46.40
2018-05-10T08:29:39.285Z,47.00
2018-05-10T08:32:31.227Z,46.20
2018-05-10T08:35:24.042Z,47.90
2018-05-10T08:38:15.892Z,47.90
2018-05-10T08:41:07.339Z,48.80
2018-05-10T08:43:59.909Z,46.20
2018-05-10T08:46:52.778Z,46.20
2018-05-10T08:49:44.950Z,43.50
2018-05-10T08:52:36.449Z,44.50
2018-05-10T08:55:28.378Z,44.60
2018-05-10T08:58:19.846Z,43.10
2018-05-10T09:01:12.062Z,43.20
2018-05-10T09:04:03.554Z,43.10
2018-05-10T09:06:56.136Z,43.60
2018-05-10T09:09:48.502Z,45.50
2018-05-10T09:12:39.973Z,45.40
2018-05-10T09:15:34.724Z,45.00
2018-05-10T09:18:26.357Z,44.50
2018-05-10T09:21:17.914Z,44.70
2018-05-10T09:24:09.363Z,45.80
2018-05-10T09:27:02.271Z,45.20
2018-05-10T09:29:55.173Z,44.70
2018-05-10T09:32:46.898Z,44.50
2018-05-10T09:35:39.101Z,46.10
2018-05-10T09:38:31.817Z,47.00
2018-05-10T09:41:26.781Z,47.00
2018-05-10T09:44:18.282Z,46.20
2018-05-10T09:47:09.775Z,45.50
2018-05-10T09:50:01.470Z,45.00
2018-05-10T09:52:54.262Z,44.50
2018-05-10T09:55:45.734Z,43.10
2018-05-10T09:58:37.206Z,43.70
2018-05-10T10:01:28.881Z,42.50
2018-05-10T10:04:21.288Z,41.10
2018-05-10T10:07:12.838Z,41.00
2018-05-10T10:10:04.681Z,42.30
2018-05-10T10:12:56.667Z,41.40
2018-05-10T10:15:48.126Z,41.30
2018-05-10T10:18:39.556Z,40.70
2018-05-10T10:21:31.230Z,40.60
2018-05-10T10:24:23.410Z,39.20
2018-05-10T10:27:14.902Z,37.90
2018-05-10T10:30:06.462Z,37.10
2018-05-10T10:32:58.070Z,37.70
2018-05-10T10:35:49.608Z,38.10
2018-05-10T10:38:41.104Z,36.70
2018-05-10T10:41:32.608Z,35.90
2018-05-10T10:44:25.378Z,37.70
2018-05-10T10:47:17.051Z,38.30
2018-05-10T10:50:08.490Z,34.90
2018-05-10T10:53:00.097Z,34.80
2018-05-10T10:55:53.276Z,34.60
2018-05-10T10:58:44.923Z,34.50
2018-05-10T11:01:36.420Z,33.50
2018-05-10T11:04:27.949Z,35.90
2018-05-10T11:07:19.382Z,34.30
2018-05-10T11:10:10.828Z,33.90
2018-05-10T11:13:02.316Z,32.80
2018-05-10T11:15:54.876Z,33.70
2018-05-10T11:18:46.375Z,34.10
2018-05-10T11:21:37.806Z,34.10
2018-05-10T11:24:30.077Z,35.60
2018-05-10T11:27:22.603Z,35.50
2018-05-10T11:30:14.141Z,34.60
2018-05-10T11:33:05.602Z,35.30
2018-05-10T11:35:57.947Z,38.80
2018-05-10T11:38:49.410Z,38.70
2018-05-10T11:41:40.848Z,40.70
2018-05-10T11:44:32.350Z,41.00
2018-05-10T11:47:23.971Z,42.80
2018-05-10T11:50:16.203Z,42.80
2018-05-10T11:53:07.645Z,42.80
2018-05-10T11:55:59.262Z,43.30
2018-05-10T11:58:50.707Z,42.30
2018-05-10T12:01:42.198Z,43.70
2018-05-10T12:04:34.411Z,44.00
2018-05-10T12:07:26.355Z,44.00
2018-05-10T12:10:18.605Z,40.90
2018-05-10T12:13:10.044Z,40.90
2018-05-10T12:16:01.594Z,41.60
2018-05-10T12:18:53.387Z,42.00
2018-05-10T12:21:44.870Z,41.40
2018-05-10T12:24:36.342Z,40.60
2018-05-10T12:27:28.742Z,41.80
2018-05-10T12:30:20.327Z,41.80
2018-05-10T12:33:11.718Z,41.80
2018-05-10T12:36:03.424Z,40.10
2018-05-10T12:38:55.281Z,40.50
2018-05-10T12:41:46.830Z,42.00
2018-05-10T12:44:38.286Z,41.60
2018-05-10T12:47:29.897Z,41.70
2018-05-10T12:50:21.659Z,42.00
2018-05-10T12:53:13.937Z,40.30
2018-05-10T12:56:05.445Z,40.20
2018-05-10T12:58:57.524Z,40.40
2018-05-10T13:01:49.061Z,39.60
2018-05-10T13:04:40.506Z,39.10
2018-05-10T13:07:32.012Z,40.60
2018-05-10T13:10:24.348Z,40.10
2018-05-10T13:13:15.915Z,41.10
2018-05-10T13:16:07.431Z,40.80
2018-05-10T13:18:59.628Z,41.10
2018-05-10T13:21:52.158Z,41.10
2018-05-10T13:24:44.150Z,41.90
2018-05-10T13:27:36.352Z,41.10
2018-05-10T13:30:27.982Z,40.40
2018-05-10T13:33:20.532Z,41.00
2018-05-10T13:36:13.858Z,42.20
2018-05-10T13:39:05.323Z,42.10
2018-05-10T13:41:57.092Z,41.40
2018-05-10T13:44:48.602Z,42.30
2018-05-10T13:47:40.879Z,42.50
2018-05-10T13:50:32.259Z,42.50
2018-05-10T13:53:23.994Z,43.20
2018-05-10T13:56:16.321Z,42.10
2018-05-10T13:59:07.814Z,42.30
2018-05-10T14:01:59.245Z,42.40
2018-05-10T14:04:50.785Z,43.60
2018-05-10T14:07:42.469Z,43.60
2018-05-10T14:10:33.989Z,43.60
2018-05-10T14:13:25.826Z,44.00
2018-05-10T14:16:17.330Z,43.90
2018-05-10T14:19:09.538Z,43.80
2018-05-10T14:22:01.274Z,43.80
2018-05-10T14:24:53.611Z,43.30
2018-05-10T14:27:45.131Z,43.90
2018-05-10T14:30:37.771Z,44.20
2018-05-10T14:33:29.706Z,45.20
2018-05-10T14:36:21.226Z,45.70
2018-05-10T14:39:12.671Z,45.80
2018-05-10T14:42:04.322Z,45.20
2018-05-10T14:44:56.863Z,44.50
2018-05-10T14:47:48.314Z,44.50
2018-05-10T14:50:39.764Z,44.40
2018-05-10T14:53:31.312Z,43.00
2018-05-10T14:56:26.030Z,43.70
2018-05-10T14:59:18.377Z,43.90
2018-05-10T15:02:09.822Z,44.30
2018-05-10T15:05:01.480Z,43.70
2018-05-10T15:07:55.074Z,44.20
2018-05-10T15:10:46.911Z,43.50
2018-05-10T15:13:39.157Z,43.70
2018-05-10T15:16:30.646Z,43.70
2018-05-10T15:19:27.591Z,44.40
2018-05-10T15:22:19.139Z,44.70
2018-05-10T15:25:10.602Z,44.60
2018-05-10T15:28:02.064Z,44.80
2018-05-10T15:30:53.888Z,45.00
2018-05-10T15:33:45.478Z,45.60
2018-05-10T15:36:36.922Z,45.70
2018-05-10T15:39:28.500Z,45.60
2018-05-10T15:42:20.985Z,45.90
2018-05-10T15:45:13.299Z,47.50
2018-05-10T15:48:04.833Z,46.90
2018-05-10T15:50:56.932Z,47.20
2018-05-10T15:53:48.392Z,47.60
2018-05-10T15:56:39.854Z,48.10
2018-05-10T15:59:33.586Z,47.50
2018-05-10T16:02:26.584Z,46.80
2018-05-10T16:05:18.082Z,46.80
2018-05-10T16:08:09.526Z,46.20
2018-05-10T16:11:01.069Z,46.90
2018-05-10T16:13:53.321Z,46.70
2018-05-10T16:16:44.931Z,46.80
2018-05-10T16:19:36.363Z,46.90
2018-05-10T16:22:28.756Z,47.80
2018-05-10T16:25:20.918Z,48.30
2018-05-10T16:28:12.522Z,49.30
2018-05-10T16:31:04.310Z,49.50
2018-05-10T16:33:56.758Z,50.20
2018-05-10T16:36:48.211Z,50.50
2018-05-10T16:39:39.650Z,51.20
2018-05-10T16:42:31.219Z,50.90
2018-05-10T16:45:23.851Z,51.20
2018-05-10T16:48:15.315Z,51.50
2018-05-10T16:51:06.754Z,52.00
2018-05-10T16:53:58.232Z,52.70
2018-05-10T16:56:50.442Z,54.30
2018-05-10T16:59:41.882Z,54.20
2018-05-10T17:02:34.364Z,55.30
2018-05-10T17:05:27.063Z,54.50
2018-05-10T17:08:18.538Z,55.10
2018-05-10T17:11:10.413Z,55.30
2018-05-10T17:14:03.384Z,56.30
2018-05-10T17:16:55.719Z,56.30
2018-05-10T17:19:47.174Z,57.10
2018-05-10T17:22:38.619Z,59.00
2018-05-10T17:25:30.372Z,58.40
2018-05-10T17:28:22.516Z,58.40
2018-05-10T17:31:14.204Z,57.90
2018-05-10T17:34:05.662Z,57.80
2018-05-10T17:36:57.165Z,58.40
2018-05-10T17:39:48.613Z,59.10
2018-05-10T17:42:40.264Z,59.20
2018-05-10T17:45:31.821Z,59.50
2018-05-10T17:48:23.944Z,59.80
2018-05-10T17:51:15.819Z,59.90
2018-05-10T17:54:07.267Z,60.40
2018-05-10T17:56:58.816Z,60.90
2018-05-10T17:59:50.274Z,61.30
2018-05-10T18:02:41.729Z,61.60
2018-05-10T18:05:33.271Z,62.00
2018-05-10T18:08:25.754Z,61.60
2018-05-10T18:11:17.369Z,61.90
2018-05-10T18:14:08.818Z,62.20
2018-05-10T18:17:00.345Z,62.90
2018-05-10T18:19:54.366Z,63.10
2018-05-10T18:22:45.861Z,63.90
2018-05-10T18:25:37.302Z,64.70
2018-05-10T18:28:28.820Z,65.50
2018-05-10T18:31:20.319Z,66.20
2018-05-10T18:34:11.753Z,66.90
2018-05-10T18:37:03.245Z,67.40
2018-05-10T18:39:54.972Z,68.10
2018-05-10T18:42:46.506Z,68.40
2018-05-10T18:45:37.936Z,69.10
2018-05-10T18:48:29.442Z,69.70
2018-05-10T18:51:21.300Z,70.10
2018-05-10T18:54:12.954Z,70.80
2018-05-10T18:57:05.229Z,72.10
2018-05-10T18:59:56.716Z,72.10
2018-05-10T19:02:48.206Z,72.70
2018-05-10T19:05:39.646Z,73.30
2018-05-10T19:08:31.201Z,73.70
2018-05-10T19:11:26.990Z,75.50
2018-05-10T19:14:18.839Z,75.00
2018-05-10T19:17:10.307Z,76.20
2018-05-10T19:20:02.148Z,76.20
2018-05-10T19:22:54.290Z,76.20
2018-05-10T19:25:45.889Z,75.80
2018-05-10T19:28:37.770Z,77.10
2018-05-10T19:31:29.690Z,77.30
2018-05-10T19:34:21.300Z,78.20
2018-05-10T19:37:13.091Z,78.70
2018-05-10T19:40:06.413Z,80.70
2018-05-10T19:42:58.393Z,80.60
2018-05-10T19:45:50.603Z,80.60
2018-05-10T19:48:42.148Z,80.60
2018-05-10T19:51:33.921Z,81.50
2018-05-10T19:54:27.508Z,82.20
2018-05-10T19:57:19.013Z,82.30
2018-05-10T20:00:10.508Z,82.10
2018-05-10T20:03:02.648Z,81.70
2018-05-10T20:05:55.933Z,80.90
2018-05-10T20:08:47.498Z,80.90
2018-05-10T20:11:39.419Z,81.20
2018-05-10T20:14:32.098Z,81.50
2018-05-10T20:17:26.780Z,81.30
2018-05-10T20:20:18.406Z,81.30
2018-05-10T20:23:09.893Z,81.40
2018-05-10T20:26:02.070Z,82.40
2018-05-10T20:28:56.709Z,81.40
2018-05-10T20:31:48.447Z,80.80
2018-05-10T20:34:39.895Z,80.80
2018-05-10T20:37:33.568Z,80.80
2018-05-10T20:40:27.221Z,80.90
2018-05-10T20:43:18.766Z,80.30
2018-05-10T20:46:10.218Z,80.80
2018-05-10T20:49:01.754Z,79.60
2018-05-10T20:51:54.480Z,78.30
2018-05-10T20:54:46.360Z,78.20
2018-05-10T20:57:38.994Z,79.20
2018-05-10T21:00:31.151Z,79.00
2018-05-10T21:03:24.299Z,79.20
2018-05-10T21:06:15.995Z,79.20
2018-05-10T21:09:08.254Z,79.10
2018-05-10T21:11:59.982Z,79.30
2018-05-10T21:14:53.548Z,80.10
2018-05-10T21:17:45.930Z,79.90
2018-05-10T21:20:37.374Z,79.90
2018-05-10T21:23:28.917Z,79.80
2018-05-10T21:26:21.175Z,79.70
2018-05-10T21:29:12.620Z,79.60
2018-05-10T21:32:05.043Z,79.20
2018-05-10T21:34:56.631Z,79.10
2018-05-10T21:37:48.122Z,79.20
2018-05-10T21:40:39.576Z,79.50
2018-05-10T21:43:31.061Z,79.40
2018-05-10T21:46:22.616Z,80.60
2018-05-10T21:49:26.153Z,80.20
2018-05-10T21:52:17.586Z,80.30
2018-05-10T21:55:09.035Z,79.80
2018-05-10T21:58:00.541Z,79.90
2018-05-10T22:00:52.082Z,80.00
2018-05-10T22:03:43.566Z,79.80
2018-05-10T22:06:35.804Z,79.30
2018-05-10T22:09:27.359Z,79.50
2018-05-10T22:12:18.831Z,79.70
2018-05-10T22:15:10.266Z,80.10
2018-05-10T22:18:01.757Z,80.30
2018-05-10T22:20:54.211Z,80.30
2018-05-10T22:23:45.654Z,80.50
2018-05-10T22:26:37.115Z,80.30
2018-05-10T22:29:29.374Z,80.90
2018-05-10T22:32:20.814Z,80.80
2018-05-10T22:35:12.321Z,80.80
2018-05-10T22:38:03.740Z,81.10
2018-05-10T22:40:55.296Z,81.60
2018-05-10T22:43:46.801Z,82.20
2018-05-10T22:46:38.238Z,82.40
2018-05-10T22:49:29.705Z,82.60
2018-05-10T22:52:22.451Z,82.50
2018-05-10T22:55:13.938Z,83.10
2018-05-10T22:58:05.479Z,83.60
2018-05-10T23:00:57.102Z,84.30
2018-05-10T23:03:48.560Z,85.30
2018-05-10T23:06:40.002Z,85.60
2018-05-10T23:09:31.560Z,85.80
2018-05-10T23:12:23.897Z,86.10
2018-05-10T23:15:15.426Z,86.00
2018-05-10T23:18:06.880Z,86.50
2018-05-10T23:20:58.410Z,86.20
2018-05-10T23:23:49.889Z,86.20
2018-05-10T23:26:42.105Z,85.90
2018-05-10T23:29:33.627Z,85.80
2018-05-10T23:32:25.224Z,85.30
2018-05-10T23:35:16.709Z,85.10
2018-05-10T23:38:08.152Z,85.00
2018-05-10T23:40:59.677Z,85.10
2018-05-10T23:43:51.238Z,84.90
2018-05-10T23:46:43.466Z,85.20
2018-05-10T23:49:34.950Z,84.50
2018-05-10T23:52:26.538Z,84.40
2018-05-10T23:55:18.020Z,84.70
2018-05-10T23:58:09.457Z,83.70
